Time;durP1;ratioP1;P1;durP2;ratioP2;P2;SDS_P1;SDS_P2;PMS_P1;PMS_P2;Temp;Humidity;BMP_temperature;BMP_pressure;BME280_temperature;BME280_humidity;BME280_pressure;Samples;Min_cycle;Max_cycle;Signal;HPM_P1;HPM_P2
2022/06/18 00:00:46;;;;;;;27.50;1.90;;;;;;;20.34;46.47;101048.66;5045003;28;20048;-71
2022/06/18 00:03:12;;;;;;;2.78;1.00;;;;;;;20.32;46.55;101055.03;5041279;28;20067;-70
2022/06/18 00:05:40;;;;;;;2.80;0.77;;;;;;;20.33;46.64;101051.41;5036982;28;20037;-71
2022/06/18 00:08:16;;;;;;;3.53;0.90;;;;;;;20.27;47.76;101051.63;5041310;28;20090;-71
2022/06/18 00:10:41;;;;;;;4.20;0.85;;;;;;;20.17;47.54;101050.25;5044830;28;20051;-70
2022/06/18 00:15:58;;;;;;;2.72;0.95;;;;;;;19.95;48.56;101053.72;5038467;28;20037;-71
2022/06/18 00:18:23;;;;;;;3.60;0.82;;;;;;;19.86;48.54;101046.91;5043906;28;20041;-71
2022/06/18 00:20:48;;;;;;;2.13;0.70;;;;;;;19.77;48.60;101049.03;5043206;28;20116;-71
2022/06/18 00:23:16;;;;;;;2.67;0.80;;;;;;;19.69;48.86;101042.16;5042055;28;20045;-70
2022/06/18 00:25:44;;;;;;;1.63;0.70;;;;;;;19.60;49.46;101044.28;5041667;28;20049;-71
2022/06/18 00:28:22;;;;;;;2.72;0.70;;;;;;;19.53;49.67;101056.13;5038829;28;20470;-71
2022/06/18 00:30:49;;;;;;;2.50;0.80;;;;;;;19.45;50.15;101045.66;5042576;28;20037;-71
2022/06/18 00:33:15;;;;;;;1.98;0.88;;;;;;;19.37;50.07;101042.38;5041045;28;20040;-70
2022/06/18 00:35:42;;;;;;;3.55;0.75;;;;;;;19.25;50.60;101041.00;5033806;28;20506;-71
2022/06/18 00:38:14;;;;;;;2.38;0.80;;;;;;;19.18;50.25;101036.78;5043710;28;20111;-70
2022/06/18 00:40:43;;;;;;;2.28;1.45;;;;;;;19.13;50.94;101036.06;5042204;28;20045;-70
2022/06/18 00:43:41;;;;;;;1.90;0.80;;;;;;;19.10;51.72;101041.50;5040546;28;20060;-71
2022/06/18 00:46:45;;;;;;;2.88;0.90;;;;;;;19.07;52.10;101050.50;5038598;28;20077;-71
2022/06/18 00:49:20;;;;;;;2.50;1.00;;;;;;;18.92;51.22;101051.03;5042362;28;20041;-70
2022/06/18 00:51:54;;;;;;;3.25;0.80;;;;;;;18.81;51.96;101038.88;5038102;28;20036;-71
2022/06/18 00:54:23;;;;;;;3.67;1.00;;;;;;;18.77;51.68;101037.22;5040638;28;20029;-71
2022/06/18 00:57:11;;;;;;;2.08;0.98;;;;;;;18.67;52.18;101040.19;5040276;28;20048;-70
2022/06/18 01:00:00;;;;;;;2.55;1.20;;;;;;;18.49;51.81;101031.81;5033504;28;20049;-70
2022/06/18 01:02:37;;;;;;;3.20;0.95;;;;;;;18.42;51.58;101029.38;5043480;28;20036;-71
2022/06/18 01:05:18;;;;;;;3.17;1.15;;;;;;;18.34;52.40;101022.50;5042675;28;20086;-70
2022/06/18 01:07:48;;;;;;;3.88;1.27;;;;;;;18.28;52.67;101027.13;5020301;28;20044;-70
2022/06/18 01:10:26;;;;;;;3.88;1.02;;;;;;;18.23;53.00;101024.59;5041021;28;20053;-71
2022/06/18 01:12:52;;;;;;;3.88;1.23;;;;;;;18.15;53.29;101026.63;5019496;28;20034;-71
2022/06/18 01:15:20;;;;;;;2.42;0.98;;;;;;;18.12;53.04;101032.94;5041514;28;20079;-71
2022/06/18 01:17:49;;;;;;;5.43;1.05;;;;;;;18.04;53.37;101028.75;5040185;28;20061;-70
2022/06/18 01:20:16;;;;;;;2.38;1.15;;;;;;;17.98;53.69;101023.59;5042765;28;20166;-70
2022/06/18 01:22:58;;;;;;;2.05;0.90;;;;;;;17.89;54.33;101020.28;5038523;28;20509;-70
2022/06/18 01:25:26;;;;;;;3.07;1.00;;;;;;;17.84;54.00;101024.88;5039621;28;20029;-70
2022/06/18 01:27:54;;;;;;;2.97;1.10;;;;;;;17.81;54.28;101024.06;5042325;28;20284;-70
2022/06/18 01:30:36;;;;;;;2.88;1.00;;;;;;;17.76;54.21;101024.16;5041163;28;20403;-70
2022/06/18 01:33:06;;;;;;;2.30;1.10;;;;;;;17.69;54.66;101019.91;5033451;28;20060;-71
2022/06/18 01:35:37;;;;;;;2.35;0.77;;;;;;;17.63;54.71;101017.41;5033877;28;20041;-70
2022/06/18 01:38:06;;;;;;;2.35;1.10;;;;;;;17.56;54.43;101016.72;5039379;28;20029;-71
2022/06/18 01:40:51;;;;;;;2.33;1.10;;;;;;;17.49;55.27;101013.31;5042020;28;20025;-70
2022/06/18 01:43:19;;;;;;;3.67;1.05;;;;;;;17.43;55.02;101016.16;5041143;28;20426;-70
2022/06/18 01:45:54;;;;;;;3.42;1.20;;;;;;;17.36;55.01;101005.69;5035449;28;20064;-70
2022/06/18 01:48:24;;;;;;;3.00;1.15;;;;;;;17.31;54.69;101005.81;5042165;28;20037;-70
2022/06/18 01:51:02;;;;;;;3.45;1.00;;;;;;;17.23;55.32;101002.47;5038775;28;20033;-70
2022/06/18 01:53:39;;;;;;;2.83;1.17;;;;;;;17.17;56.02;101002.66;5053210;28;20060;-71
2022/06/18 01:56:43;;;;;;;3.17;1.10;;;;;;;17.05;56.72;100994.03;5037936;28;20500;-71
2022/06/18 01:59:22;;;;;;;3.13;1.40;;;;;;;16.96;56.55;100988.94;5009262;28;20530;-70
2022/06/18 02:01:50;;;;;;;2.50;1.10;;;;;;;16.95;56.15;100987.19;5018495;28;20708;-71
2022/06/18 02:04:18;;;;;;;3.22;1.38;;;;;;;16.92;56.38;100983.72;5040004;28;20032;-70
2022/06/18 02:06:45;;;;;;;2.60;1.20;;;;;;;16.88;56.44;100976.72;5037985;28;20039;-71
2022/06/18 02:09:26;;;;;;;3.88;1.45;;;;;;;16.85;56.62;100977.69;5039882;28;20116;-70
2022/06/18 02:11:55;;;;;;;3.03;1.20;;;;;;;16.80;56.76;100979.56;5038827;28;20088;-71
2022/06/18 02:14:23;;;;;;;2.75;0.98;;;;;;;16.77;57.28;100976.97;5039966;28;20041;-70
2022/06/18 02:16:51;;;;;;;2.75;1.20;;;;;;;16.76;58.05;100975.19;5036042;28;20068;-71
2022/06/18 02:19:18;;;;;;;1.95;0.90;;;;;;;16.64;58.70;100971.91;5040438;28;20447;-70
2022/06/18 02:21:48;;;;;;;3.50;1.40;;;;;;;16.61;57.95;100977.31;5039332;28;20037;-70
2022/06/18 02:24:15;;;;;;;3.20;1.10;;;;;;;16.64;58.18;100971.06;5038560;28;20389;-70
2022/06/18 02:26:45;;;;;;;4.00;1.38;;;;;;;16.63;57.80;100966.63;5038197;28;20041;-70
2022/06/18 02:29:20;;;;;;;2.25;1.13;;;;;;;16.68;58.02;100963.84;5040640;28;20040;-70
2022/06/18 02:31:46;;;;;;;2.25;1.13;;;;;;;16.73;57.57;100965.47;5040390;28;20587;-71
2022/06/18 02:34:17;;;;;;;2.50;1.38;;;;;;;16.78;58.23;100960.06;5038045;28;20051;-71
2022/06/18 02:36:42;;;;;;;2.50;1.33;;;;;;;16.77;58.31;100952.97;5041611;28;20376;-70
2022/06/18 02:39:24;;;;;;;3.03;1.30;;;;;;;16.80;58.14;100956.47;5040039;28;20057;-71
2022/06/18 02:41:59;;;;;;;2.97;1.20;;;;;;;16.85;57.87;100949.22;5018201;28;20044;-70
2022/06/18 02:44:25;;;;;;;5.20;1.60;;;;;;;16.86;57.22;100950.09;5040920;28;20115;-71
2022/06/18 02:46:50;;;;;;;3.55;1.20;;;;;;;16.87;57.32;100957.16;5039276;28;20081;-71
2022/06/18 02:49:17;;;;;;;3.47;1.25;;;;;;;16.83;57.11;100956.38;5041153;28;20499;-70
2022/06/18 02:51:42;;;;;;;3.30;1.25;;;;;;;16.75;57.71;100955.66;5039331;28;20072;-71
2022/06/18 02:54:10;;;;;;;5.40;1.30;;;;;;;16.71;57.72;100950.44;5039773;28;20076;-70
2022/06/18 02:56:36;;;;;;;3.25;1.60;;;;;;;16.65;57.78;100954.13;5036664;28;20043;-70
2022/06/18 02:59:05;;;;;;;2.00;1.02;;;;;;;16.55;58.27;100950.81;5038120;28;20403;-70
2022/06/18 03:01:32;;;;;;;3.10;1.33;;;;;;;16.50;58.10;100950.03;5048658;28;20061;-70
2022/06/18 03:04:00;;;;;;;3.80;1.50;;;;;;;16.52;58.26;100950.03;5035495;28;20492;-70
2022/06/18 03:06:30;;;;;;;3.47;1.20;;;;;;;16.44;58.72;100952.88;5038967;28;20099;-71
2022/06/18 03:08:57;;;;;;;4.03;1.40;;;;;;;16.45;58.50;100959.94;5042188;28;20411;-70
2022/06/18 03:14:11;;;;;;;2.33;1.20;;;;;;;16.36;59.03;100950.38;5038939;28;20048;-71
2022/06/18 03:16:36;;;;;;;3.28;1.40;;;;;;;16.36;59.06;100954.84;5041782;28;20040;-70
2022/06/18 03:19:04;;;;;;;3.47;1.35;;;;;;;16.35;59.10;100947.78;5038826;28;20037;-71
2022/06/18 03:21:47;;;;;;;2.05;1.20;;;;;;;16.39;59.59;100944.09;5038086;28;20065;-70
2022/06/18 03:24:13;;;;;;;5.75;1.50;;;;;;;16.39;59.18;100939.66;5052098;28;20096;-71
2022/06/18 03:26:39;;;;;;;2.53;1.20;;;;;;;16.41;58.85;100947.63;5038430;28;20029;-70
2022/06/18 03:29:09;;;;;;;4.18;1.25;;;;;;;16.41;59.15;100947.63;5040820;28;20044;-70
2022/06/18 03:31:35;;;;;;;2.47;1.27;;;;;;;16.45;59.03;100941.28;5036921;28;20029;-70
2022/06/18 03:34:02;;;;;;;2.88;1.50;;;;;;;16.49;59.25;100937.66;5037272;28;20025;-71
2022/06/18 03:36:28;;;;;;;4.60;1.50;;;;;;;16.50;59.77;100939.38;5034537;28;20034;-70
2022/06/18 03:38:56;;;;;;;3.67;1.40;;;;;;;16.53;59.71;100931.34;5038319;28;20036;-71
2022/06/18 03:41:23;;;;;;;4.72;1.83;;;;;;;16.61;59.87;100932.03;5042861;28;20138;-71
2022/06/18 03:43:52;;;;;;;3.53;1.50;;;;;;;16.63;60.21;100932.84;5041175;28;20547;-70
2022/06/18 03:46:18;;;;;;;2.75;1.40;;;;;;;16.66;59.80;100931.88;5043262;28;20130;-70
2022/06/18 03:48:48;;;;;;;2.78;1.27;;;;;;;16.81;59.14;100925.34;5042473;28;20577;-70
2022/06/18 03:51:17;;;;;;;3.88;1.40;;;;;;;16.90;59.14;100925.13;5040478;28;20108;-70
2022/06/18 03:53:43;;;;;;;3.17;1.20;;;;;;;17.04;58.91;100925.63;5030695;28;20057;-71
2022/06/18 03:56:11;;;;;;;2.22;1.13;;;;;;;17.17;58.70;100919.97;5040193;28;20068;-71
2022/06/18 03:58:42;;;;;;;2.05;1.17;;;;;;;17.24;58.58;100922.41;5041752;28;20064;-71
2022/06/18 04:01:10;;;;;;;3.70;1.67;;;;;;;17.30;58.53;100922.25;5043289;28;20050;-71
2022/06/18 04:03:36;;;;;;;3.33;1.40;;;;;;;17.33;58.95;100913.28;5021099;28;20061;-71
2022/06/18 04:06:02;;;;;;;2.38;1.40;;;;;;;17.38;58.42;100911.34;5041681;28;20087;-70
2022/06/18 04:08:28;;;;;;;2.75;1.30;;;;;;;17.49;58.64;100903.03;5042150;28;20033;-71
2022/06/18 04:10:59;;;;;;;4.78;1.27;;;;;;;17.56;58.02;100907.28;5042781;28;20036;-71
2022/06/18 04:13:28;;;;;;;3.47;1.77;;;;;;;17.69;58.00;100911.34;5040313;28;20095;-71
2022/06/18 04:16:12;;;;;;;2.85;1.50;;;;;;;17.78;57.71;100899.50;5042101;28;20103;-71
2022/06/18 04:18:38;;;;;;;3.40;1.42;;;;;;;17.86;57.17;100902.84;5040356;28;20038;-71
2022/06/18 04:21:06;;;;;;;2.30;1.25;;;;;;;17.96;56.70;100896.31;5042016;28;20037;-71
2022/06/18 04:23:34;;;;;;;3.28;1.20;;;;;;;18.10;56.22;100895.00;5042337;28;20087;-71
2022/06/18 04:26:00;;;;;;;3.13;1.42;;;;;;;18.21;55.67;100889.31;5038648;28;20029;-71
2022/06/18 04:28:27;;;;;;;3.10;1.15;;;;;;;18.35;55.63;100890.63;5043376;28;20033;-71
2022/06/18 04:31:07;;;;;;;4.95;1.70;;;;;;;18.48;55.20;100876.88;5041082;28;20114;-71
2022/06/18 04:33:35;;;;;;;7.10;1.38;;;;;;;18.60;54.97;100884.47;5040185;28;20072;-71
2022/06/18 04:36:34;;;;;;;3.40;1.40;;;;;;;18.72;54.13;100884.06;5042422;28;20099;-71
2022/06/18 04:39:13;;;;;;;4.28;1.30;;;;;;;18.83;53.56;100876.56;5023046;28;20049;-71
2022/06/18 04:41:44;;;;;;;3.83;1.45;;;;;;;18.95;53.44;100879.75;5038027;28;20045;-71
2022/06/18 04:44:14;;;;;;;2.67;1.50;;;;;;;19.06;53.63;100874.88;5041796;28;20495;-71
2022/06/18 04:46:44;;;;;;;3.05;1.35;;;;;;;19.18;52.85;100878.94;5041662;28;20064;-71
2022/06/18 04:49:09;;;;;;;3.15;1.42;;;;;;;19.29;52.67;100871.38;5040054;28;20053;-71
2022/06/18 04:51:34;;;;;;;3.05;1.10;;;;;;;19.39;51.92;100872.78;5041442;28;20032;-71
2022/06/18 04:54:00;;;;;;;2.97;1.10;;;;;;;19.46;51.88;100870.75;5041611;28;20033;-71
2022/06/18 04:56:25;;;;;;;2.75;1.25;;;;;;;19.57;51.50;100881.94;5041338;28;20033;-71
2022/06/18 04:58:51;;;;;;;1.98;1.05;;;;;;;19.67;51.55;100875.31;5042888;28;20046;-71
2022/06/18 05:01:20;;;;;;;4.32;1.13;;;;;;;19.82;51.37;100864.94;5039719;28;20043;-71
2022/06/18 05:03:57;;;;;;;1.92;1.10;;;;;;;19.91;50.15;100872.59;5038496;28;20419;-71
2022/06/18 05:06:31;;;;;;;3.40;0.82;;;;;;;19.97;48.09;100869.69;5039627;28;20033;-70
2022/06/18 05:09:03;;;;;;;3.00;1.08;;;;;;;20.15;48.41;100870.78;5038616;28;20041;-71
2022/06/18 05:11:42;;;;;;;1.30;0.70;;;;;;;20.31;48.00;100869.22;5038916;28;20044;-71
2022/06/18 05:14:22;;;;;;;2.17;0.77;;;;;;;20.47;46.92;100858.72;5041453;28;20051;-71
2022/06/18 05:16:53;;;;;;;2.22;0.80;;;;;;;20.64;46.21;100862.53;5039383;28;20030;-71
2022/06/18 05:19:25;;;;;;;3.25;0.80;;;;;;;20.70;44.91;100862.28;5049375;28;20083;-71
2022/06/18 05:21:53;;;;;;;2.58;0.80;;;;;;;20.85;45.29;100861.59;5034218;28;20040;-71
2022/06/18 05:24:19;;;;;;;1.00;0.68;;;;;;;21.02;44.71;100859.03;5041682;28;20037;-71
2022/06/18 05:26:48;;;;;;;4.18;1.00;;;;;;;21.18;44.32;100856.53;5039023;28;20037;-72
2022/06/18 05:29:15;;;;;;;2.42;0.85;;;;;;;21.28;43.71;100850.78;5050068;28;20165;-71
2022/06/18 05:31:41;;;;;;;2.60;1.05;;;;;;;21.41;43.69;100850.16;5040459;28;20021;-71
2022/06/18 05:34:07;;;;;;;3.83;1.00;;;;;;;21.48;42.80;100847.19;5040701;28;20073;-71
2022/06/18 05:36:34;;;;;;;2.55;0.82;;;;;;;21.58;42.69;100848.50;5039568;28;20122;-71
2022/06/18 05:39:00;;;;;;;1.60;0.82;;;;;;;21.66;42.48;100854.38;5042062;28;20155;-71
2022/06/18 05:41:26;;;;;;;1.42;0.73;;;;;;;21.78;42.98;100853.81;5037573;28;20037;-71
2022/06/18 05:43:52;;;;;;;2.33;0.70;;;;;;;21.88;42.02;100844.38;5039503;28;20514;-71
2022/06/18 05:46:17;;;;;;;3.45;1.10;;;;;;;21.97;42.75;100844.84;5032923;28;20049;-71
2022/06/18 05:48:43;;;;;;;4.22;1.02;;;;;;;22.03;41.81;100839.19;5041256;28;20049;-71
2022/06/18 05:51:09;;;;;;;1.83;0.80;;;;;;;22.11;42.20;100839.66;5040795;28;20502;-71
2022/06/18 05:53:35;;;;;;;2.08;0.80;;;;;;;22.20;41.57;100841.09;5038713;28;20044;-71
2022/06/18 05:56:10;;;;;;;1.92;0.90;;;;;;;22.37;42.06;100840.22;5042073;28;20045;-71
2022/06/18 05:58:54;;;;;;;3.72;1.00;;;;;;;22.47;41.48;100844.19;5036489;28;20072;-71
2022/06/18 06:01:24;;;;;;;3.40;0.65;;;;;;;22.53;41.38;100847.47;5039370;28;20082;-71
2022/06/18 06:03:49;;;;;;;1.73;0.68;;;;;;;22.62;41.33;100834.47;5040909;28;20518;-71
2022/06/18 06:06:15;;;;;;;1.98;0.80;;;;;;;22.78;41.01;100831.88;5038704;28;20037;-71
2022/06/18 06:08:44;;;;;;;4.15;0.85;;;;;;;22.97;41.48;100829.97;5038796;28;20503;-71
2022/06/18 06:13:53;;;;;;;1.85;0.80;;;;;;;23.24;39.45;100822.25;5034977;28;20032;-71
2022/06/18 06:16:20;;;;;;;1.80;0.60;;;;;;;23.42;39.15;100825.72;5042121;28;20036;-71
2022/06/18 06:18:46;;;;;;;4.65;0.77;;;;;;;23.58;38.34;100813.19;5039891;28;20415;-72
2022/06/18 06:21:11;;;;;;;2.70;0.70;;;;;;;23.72;38.11;100811.56;5040037;28;20037;-72
2022/06/18 06:23:36;;;;;;;4.25;0.77;;;;;;;23.87;37.22;100812.50;5042009;28;20044;-72
2022/06/18 06:26:02;;;;;;;2.90;0.80;;;;;;;24.05;37.06;100816.81;5040120;28;20037;-71
2022/06/18 06:28:29;;;;;;;2.60;0.70;;;;;;;24.11;36.55;100808.41;5045795;28;20044;-72
2022/06/18 06:30:55;;;;;;;2.47;0.90;;;;;;;24.26;36.92;100809.31;5040103;28;20399;-71
2022/06/18 06:33:21;;;;;;;3.65;0.80;;;;;;;24.39;36.64;100813.06;5041004;28;20442;-72
2022/06/18 06:35:47;;;;;;;2.40;0.95;;;;;;;24.50;36.48;100804.34;5041623;28;20041;-71
2022/06/18 06:38:14;;;;;;;2.88;1.00;;;;;;;24.54;36.67;100795.09;5038347;28;20037;-71
2022/06/18 06:40:42;;;;;;;4.10;0.95;;;;;;;24.65;36.34;100797.13;5042484;28;20040;-71
2022/06/18 06:43:11;;;;;;;2.85;1.00;;;;;;;24.69;35.85;100804.09;5039191;28;20049;-71
2022/06/18 06:45:36;;;;;;;5.85;0.95;;;;;;;24.74;35.41;100788.50;5040647;28;20060;-71
2022/06/18 06:48:03;;;;;;;4.47;1.00;;;;;;;24.94;35.61;100781.84;5041681;28;20526;-71
2022/06/18 06:50:29;;;;;;;2.83;1.00;;;;;;;25.14;35.64;100784.16;5039246;28;20039;-71
2022/06/18 06:52:55;;;;;;;4.88;1.08;;;;;;;25.31;35.90;100790.38;5032655;28;20060;-71
2022/06/18 06:58:08;;;;;;;2.30;0.80;;;;;;;25.57;34.28;100780.56;5035780;28;20403;-72
2022/06/18 07:00:38;;;;;;;4.88;0.98;;;;;;;25.67;34.51;100779.00;5041442;28;20033;-72
2022/06/18 07:03:03;;;;;;;3.47;1.17;;;;;;;25.83;34.02;100775.31;5040711;28;20047;-72
2022/06/18 07:05:29;;;;;;;7.38;1.65;;;;;;;25.87;34.02;100771.47;5038429;28;20033;-72
2022/06/18 07:07:54;;;;;;;4.00;1.30;;;;;;;25.96;33.71;100771.75;5042279;28;20041;-72
2022/06/18 07:10:19;;;;;;;6.22;1.50;;;;;;;26.10;33.88;100772.66;5039023;28;20033;-72
2022/06/18 07:12:44;;;;;;;2.67;0.98;;;;;;;26.23;33.36;100760.88;5040867;28;20040;-72
2022/06/18 07:15:10;;;;;;;1.45;0.65;;;;;;;26.31;32.73;100768.47;5041535;28;20060;-72
2022/06/18 07:17:36;;;;;;;2.38;0.70;;;;;;;26.45;32.87;100760.28;5044281;28;20112;-72
2022/06/18 07:20:04;;;;;;;4.28;0.90;;;;;;;26.60;33.16;100761.09;5045468;28;20547;-72
2022/06/18 07:22:31;;;;;;;4.65;0.70;;;;;;;26.75;33.09;100753.75;5040672;28;20484;-72
2022/06/18 07:24:56;;;;;;;1.77;0.70;;;;;;;26.88;32.62;100748.31;5042549;28;20038;-72
2022/06/18 07:27:22;;;;;;;3.58;0.90;;;;;;;27.00;30.99;100744.72;5043619;28;20102;-72
2022/06/18 07:29:47;;;;;;;1.73;0.70;;;;;;;27.10;30.86;100743.09;5044285;28;20447;-72
2022/06/18 07:32:15;;;;;;;4.15;0.77;;;;;;;27.15;30.93;100734.63;5044185;28;20028;-72
2022/06/18 07:34:41;;;;;;;1.38;0.77;;;;;;;27.24;30.96;100734.00;5042726;28;20037;-71
2022/06/18 07:37:06;;;;;;;4.07;0.82;;;;;;;27.31;30.20;100729.88;5040107;28;20040;-72
2022/06/18 07:39:32;;;;;;;3.10;0.77;;;;;;;27.29;30.04;100731.81;5041521;28;20075;-72
2022/06/18 07:41:57;;;;;;;3.15;1.33;;;;;;;27.34;30.58;100736.91;5042598;28;20492;-72
2022/06/18 07:44:23;;;;;;;3.55;0.90;;;;;;;27.43;29.74;100733.53;5042927;28;20025;-72
2022/06/18 07:46:49;;;;;;;3.20;0.90;;;;;;;27.37;30.01;100720.41;5044751;28;20036;-72
2022/06/18 07:49:15;;;;;;;3.80;0.88;;;;;;;27.49;30.33;100719.50;5042539;28;20538;-72
2022/06/18 07:51:41;;;;;;;1.90;0.85;;;;;;;27.54;30.44;100719.19;5044843;28;20041;-72
2022/06/18 07:54:06;;;;;;;3.53;0.70;;;;;;;27.74;30.80;100714.97;5042583;28;20784;-72
2022/06/18 07:56:32;;;;;;;2.95;0.80;;;;;;;27.99;30.70;100714.00;5044058;28;20044;-71
2022/06/18 07:58:58;;;;;;;3.70;0.70;;;;;;;28.19;30.24;100707.03;5043739;28;20091;-72
2022/06/18 08:01:24;;;;;;;4.68;0.90;;;;;;;28.14;29.77;100706.56;5038025;28;20117;-72
2022/06/18 08:03:49;;;;;;;2.70;0.82;;;;;;;28.12;29.34;100714.78;5041768;28;20108;-72
2022/06/18 08:06:15;;;;;;;1.58;0.73;;;;;;;28.04;29.57;100700.97;5045312;28;20029;-72
2022/06/18 08:08:40;;;;;;;3.33;0.90;;;;;;;28.20;29.72;100700.63;5041015;28;20657;-72
2022/06/18 08:11:11;;;;;;;2.35;1.00;;;;;;;28.48;29.25;100696.69;5043337;28;20033;-72
2022/06/18 08:13:36;;;;;;;4.00;1.40;;;;;;;28.53;29.44;100697.19;5044140;28;20044;-72
2022/06/18 08:16:03;;;;;;;2.85;1.30;;;;;;;28.58;28.72;100694.06;5042394;28;20033;-72
2022/06/18 08:18:28;;;;;;;1.25;0.65;;;;;;;28.69;28.96;100698.66;5043667;28;20037;-72
2022/06/18 08:20:54;;;;;;;5.88;1.13;;;;;;;28.80;28.31;100698.69;5041587;28;20046;-72
2022/06/18 08:23:20;;;;;;;1.52;0.70;;;;;;;28.71;28.01;100686.69;5044237;28;20029;-72
2022/06/18 08:25:45;;;;;;;3.13;1.08;;;;;;;28.79;28.19;100689.66;5039290;28;20041;-72
2022/06/18 08:28:11;;;;;;;1.83;0.85;;;;;;;28.82;28.46;100677.69;5040600;28;20418;-72
2022/06/18 08:30:39;;;;;;;2.50;0.88;;;;;;;28.97;28.99;100672.84;5044457;28;20483;-72
2022/06/18 08:33:04;;;;;;;3.95;0.88;;;;;;;29.12;28.31;100671.63;5039553;28;20073;-72
2022/06/18 08:35:31;;;;;;;2.25;0.77;;;;;;;29.22;28.76;100677.19;5044361;28;20060;-72
2022/06/18 08:37:56;;;;;;;4.60;1.02;;;;;;;29.37;28.55;100667.78;5042423;28;20043;-72
2022/06/18 08:40:48;;;;;;;3.60;1.10;;;;;;;29.50;28.52;100667.59;5042611;28;20037;-72
2022/06/18 08:43:51;;;;;;;2.67;0.98;;;;;;;29.50;27.29;100662.16;5041066;28;20088;-72
2022/06/18 08:46:46;;;;;;;2.42;0.98;;;;;;;29.52;28.12;100668.34;5036776;28;20041;-72
2022/06/18 08:49:36;;;;;;;2.67;1.00;;;;;;;29.59;28.07;100664.13;5039187;28;20038;-72
2022/06/18 08:52:16;;;;;;;2.50;0.80;;;;;;;29.66;28.21;100662.66;5020465;28;20400;-72
2022/06/18 08:54:52;;;;;;;1.73;0.82;;;;;;;29.73;27.85;100657.53;5044063;28;20041;-72
2022/06/18 08:57:32;;;;;;;3.60;1.00;;;;;;;29.82;27.61;100661.34;5042457;28;20124;-72
2022/06/18 09:00:08;;;;;;;4.50;0.90;;;;;;;29.84;28.73;100645.72;5038214;28;20080;-72
2022/06/18 09:02:41;;;;;;;3.22;1.02;;;;;;;29.97;27.54;100640.97;5041182;28;20029;-72
2022/06/18 09:05:19;;;;;;;3.40;1.08;;;;;;;30.01;27.46;100642.44;5037478;28;20044;-72
2022/06/18 09:08:07;;;;;;;3.42;1.00;;;;;;;30.08;27.55;100632.75;5039035;28;20184;-72
2022/06/18 09:11:03;;;;;;;2.38;0.90;;;;;;;30.23;28.09;100640.56;5041509;28;20049;-72
2022/06/18 09:13:43;;;;;;;3.55;1.08;;;;;;;30.30;27.72;100639.94;5043336;28;20112;-72
2022/06/18 09:16:13;;;;;;;2.33;0.70;;;;;;;30.37;27.52;100634.84;5041037;28;20037;-72
2022/06/18 09:18:45;;;;;;;5.40;0.90;;;;;;;30.30;26.95;100625.47;5041147;28;20049;-72
2022/06/18 09:21:22;;;;;;;3.50;0.77;;;;;;;30.42;28.03;100629.84;5037826;28;20484;-72
2022/06/18 09:23:54;;;;;;;5.75;1.10;;;;;;;30.44;27.85;100622.38;5040632;28;20076;-72
2022/06/18 09:26:24;;;;;;;2.08;1.00;;;;;;;30.68;27.58;100623.91;5036710;28;20127;-72
2022/06/18 09:28:57;;;;;;;3.10;1.13;;;;;;;30.73;26.76;100616.19;5042108;28;20068;-72
2022/06/18 09:31:42;;;;;;;3.88;0.80;;;;;;;30.89;27.51;100610.25;5043122;28;20047;-72
2022/06/18 09:34:16;;;;;;;2.83;0.90;;;;;;;30.93;26.66;100604.41;5043062;28;20092;-72
2022/06/18 09:36:45;;;;;;;4.85;0.90;;;;;;;30.96;27.01;100595.94;5038187;28;20060;-72
2022/06/18 09:39:20;;;;;;;2.67;1.23;;;;;;;31.03;26.65;100600.84;5034224;28;20037;-72
2022/06/18 09:41:59;;;;;;;2.55;1.10;;;;;;;31.19;26.12;100592.97;5042643;28;20066;-72
2022/06/18 09:44:35;;;;;;;4.20;0.93;;;;;;;31.28;25.91;100594.00;5042594;28;20040;-72
2022/06/18 09:47:12;;;;;;;3.25;1.02;;;;;;;31.41;25.87;100595.50;5037320;28;20555;-72
2022/06/18 09:49:39;;;;;;;2.25;1.00;;;;;;;31.44;25.68;100592.47;5038829;28;20108;-72
2022/06/18 09:52:13;;;;;;;2.50;1.00;;;;;;;31.50;25.52;100595.63;5042774;28;20033;-73
2022/06/18 09:54:49;;;;;;;2.08;0.90;;;;;;;31.63;25.54;100583.41;5041341;28;20120;-72
2022/06/18 09:57:18;;;;;;;2.00;0.80;;;;;;;31.85;25.55;100586.84;5039192;28;20041;-72
2022/06/18 10:00:04;;;;;;;3.17;0.98;;;;;;;31.77;25.82;100595.75;5042521;28;20048;-72
2022/06/18 10:02:40;;;;;;;5.40;0.90;;;;;;;31.79;25.43;100591.00;5037183;28;20044;-72
2022/06/18 10:07:52;;;;;;;5.35;1.20;;;;;;;31.84;25.58;100593.31;5039108;28;19920;-72
2022/06/18 10:10:22;;;;;;;2.83;1.00;;;;;;;32.02;25.41;100590.75;5040373;28;20117;-72
2022/06/18 10:12:53;;;;;;;3.40;1.10;;;;;;;32.17;24.51;100582.91;5041159;28;20044;-72
2022/06/18 10:15:20;;;;;;;3.72;1.17;;;;;;;32.17;24.53;100583.78;5040957;28;20033;-72
2022/06/18 10:18:32;;;;;;;4.85;1.13;;;;;;;32.26;24.63;100569.25;5039706;28;20055;-72
2022/06/18 10:21:18;;;;;;;9.95;1.30;;;;;;;32.40;23.88;100587.00;5032676;28;20045;-72
2022/06/18 10:23:56;;;;;;;5.00;1.15;;;;;;;32.36;24.15;100579.25;5037241;28;20574;-72
2022/06/18 10:26:39;;;;;;;3.35;1.13;;;;;;;32.44;25.10;100571.19;5036714;28;20087;-72
2022/06/18 10:29:17;;;;;;;4.05;1.00;;;;;;;32.66;24.64;100562.63;5040239;28;20033;-72
2022/06/18 10:32:17;;;;;;;4.35;1.27;;;;;;;32.84;24.62;100546.28;5036530;28;20104;-72
2022/06/18 10:35:10;;;;;;;5.85;1.85;;;;;;;32.98;25.24;100561.28;5039893;28;20036;-72
2022/06/18 10:38:05;;;;;;;5.65;1.90;;;;;;;32.83;24.47;100555.50;5040848;28;20037;-72
2022/06/18 10:40:52;;;;;;;4.18;1.45;;;;;;;32.68;25.13;100563.34;5042120;28;20025;-72
2022/06/18 10:43:45;;;;;;;7.82;2.30;;;;;;;32.70;25.42;100555.84;5042253;28;20091;-72
2022/06/18 10:46:18;;;;;;;10.18;2.33;;;;;;;32.88;25.14;100533.16;5022256;28;20103;-72
2022/06/18 10:48:46;;;;;;;6.70;1.88;;;;;;;33.13;25.11;100535.16;5041048;28;20041;-72
2022/06/18 10:51:19;;;;;;;4.00;1.40;;;;;;;33.07;24.77;100527.59;5044018;28;20068;-72
2022/06/18 10:53:49;;;;;;;5.68;2.00;;;;;;;33.25;24.91;100537.66;5039507;28;20411;-72
2022/06/18 10:56:20;;;;;;;2.83;1.30;;;;;;;33.43;24.19;100524.84;5041835;28;20043;-72
2022/06/18 10:58:56;;;;;;;4.90;1.40;;;;;;;33.49;24.73;100531.56;5045811;28;20510;-72
2022/06/18 11:01:32;;;;;;;5.85;1.60;;;;;;;33.51;25.05;100535.88;5040560;28;20037;-72
2022/06/18 11:04:02;;;;;;;2.85;1.15;;;;;;;33.67;24.17;100526.06;5043435;28;20073;-72
2022/06/18 11:06:27;;;;;;;5.53;1.60;;;;;;;33.69;24.25;100518.56;5039701;28;20065;-72
2022/06/18 11:08:56;;;;;;;6.18;1.80;;;;;;;33.67;24.03;100517.88;5043470;28;20668;-72
2022/06/18 11:11:28;;;;;;;4.05;1.50;;;;;;;33.72;24.30;100518.25;5043721;28;20124;-72
2022/06/18 11:13:54;;;;;;;3.13;1.35;;;;;;;33.90;24.51;100518.22;5046190;28;20130;-73
2022/06/18 11:16:24;;;;;;;3.28;1.17;;;;;;;33.87;24.40;100513.06;5041880;28;20045;-72
2022/06/18 11:19:01;;;;;;;8.37;1.63;;;;;;;34.00;23.92;100510.75;5044748;28;20029;-73
2022/06/18 11:21:32;;;;;;;4.32;1.40;;;;;;;34.11;24.19;100517.84;5045520;28;20337;-72
2022/06/18 11:24:01;;;;;;;5.80;1.50;;;;;;;34.14;23.62;100526.63;5043684;28;20083;-72
2022/06/18 11:26:28;;;;;;;4.95;1.63;;;;;;;33.90;22.85;100516.31;5043702;28;20032;-73
2022/06/18 11:29:07;;;;;;;3.78;1.35;;;;;;;33.84;23.50;100522.44;5045559;28;20431;-72
2022/06/18 11:31:35;;;;;;;7.45;1.83;;;;;;;33.91;23.27;100504.38;5040739;28;20076;-73
2022/06/18 11:34:16;;;;;;;4.40;1.75;;;;;;;34.10;23.18;100502.44;5038997;28;20073;-72
2022/06/18 11:36:50;;;;;;;5.23;1.90;;;;;;;34.20;22.78;100497.72;5041472;28;20459;-73
2022/06/18 11:39:26;;;;;;;5.75;1.90;;;;;;;34.58;22.41;100503.72;5042563;28;20279;-73
2022/06/18 11:41:57;;;;;;;5.82;1.77;;;;;;;34.80;22.39;100505.84;5053875;28;20034;-72
2022/06/18 11:44:31;;;;;;;3.83;1.85;;;;;;;34.87;22.48;100500.53;5042935;28;20112;-72
2022/06/18 11:47:25;;;;;;;9.57;2.25;;;;;;;35.04;21.11;100498.69;5039525;28;20060;-73
2022/06/18 11:50:13;;;;;;;3.63;1.63;;;;;;;35.18;21.47;100491.69;5040491;28;20369;-72
2022/06/18 11:52:45;;;;;;;7.70;1.90;;;;;;;35.33;20.97;100490.84;5039623;28;20048;-72
2022/06/18 11:55:39;;;;;;;5.05;1.80;;;;;;;35.67;21.00;100491.72;5041741;28;20045;-72
2022/06/18 11:58:20;;;;;;;4.25;1.80;;;;;;;35.80;20.65;100496.69;5044123;28;20041;-73